sensor_id;sensor_type;location;lat;lon;timestamp;temperature;humidity
20915;DHT22;10617;52.032;5.298;2022-09-17T00:03:33;13.20;99.90
20915;DHT22;10617;52.032;5.298;2022-09-17T00:07:35;13.20;99.90
20915;DHT22;10617;52.032;5.298;2022-09-17T00:11:37;13.20;99.90
20915;DHT22;10617;52.032;5.298;2022-09-17T00:15:43;13.10;99.90
20915;DHT22;10617;52.032;5.298;2022-09-17T00:19:45;13.10;99.90
20915;DHT22;10617;52.032;5.298;2022-09-17T00:23:47;13.10;99.90
20915;DHT22;10617;52.032;5.298;2022-09-17T00:27:48;13.10;99.90
20915;DHT22;10617;52.032;5.298;2022-09-17T00:31:50;13.10;99.90
20915;DHT22;10617;52.032;5.298;2022-09-17T00:35:58;13.10;99.90
20915;DHT22;10617;52.032;5.298;2022-09-17T00:40:00;13.10;99.90
20915;DHT22;10617;52.032;5.298;2022-09-17T00:48:23;13.00;99.90
20915;DHT22;10617;52.032;5.298;2022-09-17T00:52:26;12.90;99.90
20915;DHT22;10617;52.032;5.298;2022-09-17T00:56:30;12.80;99.90
20915;DHT22;10617;52.032;5.298;2022-09-17T01:00:32;12.90;99.90
20915;DHT22;10617;52.032;5.298;2022-09-17T01:04:34;12.80;99.90
20915;DHT22;10617;52.032;5.298;2022-09-17T01:09:20;12.80;99.90
20915;DHT22;10617;52.032;5.298;2022-09-17T01:13:05;12.80;99.90
20915;DHT22;10617;52.032;5.298;2022-09-17T01:17:18;12.70;99.90
20915;DHT22;10617;52.032;5.298;2022-09-17T01:21:29;12.70;99.90
20915;DHT22;10617;52.032;5.298;2022-09-17T01:29:56;12.70;99.90
20915;DHT22;10617;52.032;5.298;2022-09-17T01:38:18;12.70;99.90
20915;DHT22;10617;52.032;5.298;2022-09-17T01:46:29;12.60;99.90
20915;DHT22;10617;52.032;5.298;2022-09-17T01:50:35;12.60;99.90
20915;DHT22;10617;52.032;5.298;2022-09-17T01:54:56;12.50;99.90
20915;DHT22;10617;52.032;5.298;2022-09-17T01:59:02;12.60;99.90
20915;DHT22;10617;52.032;5.298;2022-09-17T02:03:19;12.60;99.90
20915;DHT22;10617;52.032;5.298;2022-09-17T02:07:22;12.70;99.90
20915;DHT22;10617;52.032;5.298;2022-09-17T02:11:26;12.70;99.90
20915;DHT22;10617;52.032;5.298;2022-09-17T02:15:30;12.70;99.90
20915;DHT22;10617;52.032;5.298;2022-09-17T02:19:34;12.80;99.90
20915;DHT22;10617;52.032;5.298;2022-09-17T02:23:41;12.80;99.90
20915;DHT22;10617;52.032;5.298;2022-09-17T02:27:47;12.80;99.90
20915;DHT22;10617;52.032;5.298;2022-09-17T02:31:49;12.80;99.90
20915;DHT22;10617;52.032;5.298;2022-09-17T02:35:51;12.90;99.90
20915;DHT22;10617;52.032;5.298;2022-09-17T02:39:53;12.90;99.90
20915;DHT22;10617;52.032;5.298;2022-09-17T02:52:16;12.80;99.90
20915;DHT22;10617;52.032;5.298;2022-09-17T03:00:27;12.70;99.90
20915;DHT22;10617;52.032;5.298;2022-09-17T03:04:28;12.70;99.90
20915;DHT22;10617;52.032;5.298;2022-09-17T03:08:33;12.60;99.90
20915;DHT22;10617;52.032;5.298;2022-09-17T03:12:37;12.60;99.90
20915;DHT22;10617;52.032;5.298;2022-09-17T03:16:39;12.60;99.90
20915;DHT22;10617;52.032;5.298;2022-09-17T03:20:40;12.60;99.90
20915;DHT22;10617;52.032;5.298;2022-09-17T03:24:42;12.60;99.90
20915;DHT22;10617;52.032;5.298;2022-09-17T03:28:44;12.60;99.90
20915;DHT22;10617;52.032;5.298;2022-09-17T03:32:45;12.60;99.90
20915;DHT22;10617;52.032;5.298;2022-09-17T03:36:47;12.50;99.90
20915;DHT22;10617;52.032;5.298;2022-09-17T03:41:02;12.50;99.90
20915;DHT22;10617;52.032;5.298;2022-09-17T03:45:04;12.50;99.90
20915;DHT22;10617;52.032;5.298;2022-09-17T03:49:06;12.40;99.90
20915;DHT22;10617;52.032;5.298;2022-09-17T03:53:07;12.40;99.90
20915;DHT22;10617;52.032;5.298;2022-09-17T03:57:09;12.40;99.90
20915;DHT22;10617;52.032;5.298;2022-09-17T04:01:11;12.30;99.90
20915;DHT22;10617;52.032;5.298;2022-09-17T04:05:12;12.20;99.90
20915;DHT22;10617;52.032;5.298;2022-09-17T04:09:14;12.20;99.90
20915;DHT22;10617;52.032;5.298;2022-09-17T04:13:16;12.10;99.90
20915;DHT22;10617;52.032;5.298;2022-09-17T04:17:18;12.10;99.90
20915;DHT22;10617;52.032;5.298;2022-09-17T04:21:20;12.00;99.90
20915;DHT22;10617;52.032;5.298;2022-09-17T04:25:22;12.00;99.90
20915;DHT22;10617;52.032;5.298;2022-09-17T04:29:23;12.00;99.90
20915;DHT22;10617;52.032;5.298;2022-09-17T04:33:25;12.10;99.90
20915;DHT22;10617;52.032;5.298;2022-09-17T04:37:26;12.10;99.90
20915;DHT22;10617;52.032;5.298;2022-09-17T04:41:28;12.10;99.90
20915;DHT22;10617;52.032;5.298;2022-09-17T04:45:30;12.10;99.90
20915;DHT22;10617;52.032;5.298;2022-09-17T04:49:33;12.10;99.90
20915;DHT22;10617;52.032;5.298;2022-09-17T04:53:35;12.10;99.90
20915;DHT22;10617;52.032;5.298;2022-09-17T04:57:38;12.10;99.90
20915;DHT22;10617;52.032;5.298;2022-09-17T05:01:45;12.10;99.90
20915;DHT22;10617;52.032;5.298;2022-09-17T05:05:47;12.10;99.90
20915;DHT22;10617;52.032;5.298;2022-09-17T05:09:48;12.10;99.90
20915;DHT22;10617;52.032;5.298;2022-09-17T05:13:50;12.10;99.90
20915;DHT22;10617;52.032;5.298;2022-09-17T05:17:52;12.10;99.90
20915;DHT22;10617;52.032;5.298;2022-09-17T05:21:54;12.10;99.90
20915;DHT22;10617;52.032;5.298;2022-09-17T05:25:58;12.10;99.90
20915;DHT22;10617;52.032;5.298;2022-09-17T05:30:00;12.00;99.90
20915;DHT22;10617;52.032;5.298;2022-09-17T05:34:02;12.00;99.90
20915;DHT22;10617;52.032;5.298;2022-09-17T05:38:04;12.00;99.90
20915;DHT22;10617;52.032;5.298;2022-09-17T05:42:06;11.90;99.90
20915;DHT22;10617;52.032;5.298;2022-09-17T05:46:08;11.90;99.90
20915;DHT22;10617;52.032;5.298;2022-09-17T05:50:10;11.90;99.90
20915;DHT22;10617;52.032;5.298;2022-09-17T05:54:11;11.90;99.90
20915;DHT22;10617;52.032;5.298;2022-09-17T05:58:14;11.90;99.90
20915;DHT22;10617;52.032;5.298;2022-09-17T06:02:16;12.00;99.90
20915;DHT22;10617;52.032;5.298;2022-09-17T06:06:17;12.00;99.90
20915;DHT22;10617;52.032;5.298;2022-09-17T06:10:19;12.10;99.90
20915;DHT22;10617;52.032;5.298;2022-09-17T06:14:20;12.10;99.90
20915;DHT22;10617;52.032;5.298;2022-09-17T06:18:22;12.20;99.90
20915;DHT22;10617;52.032;5.298;2022-09-17T06:22:24;12.30;99.90
20915;DHT22;10617;52.032;5.298;2022-09-17T06:26:25;12.40;99.90
20915;DHT22;10617;52.032;5.298;2022-09-17T06:30:27;12.40;99.90
20915;DHT22;10617;52.032;5.298;2022-09-17T06:34:29;12.40;99.90
20915;DHT22;10617;52.032;5.298;2022-09-17T06:38:31;12.50;99.90
20915;DHT22;10617;52.032;5.298;2022-09-17T06:42:32;12.60;99.90
20915;DHT22;10617;52.032;5.298;2022-09-17T06:46:34;12.60;99.90
20915;DHT22;10617;52.032;5.298;2022-09-17T06:50:36;12.70;99.90
20915;DHT22;10617;52.032;5.298;2022-09-17T06:54:42;12.70;99.90
20915;DHT22;10617;52.032;5.298;2022-09-17T06:58:44;12.70;99.90
20915;DHT22;10617;52.032;5.298;2022-09-17T07:02:56;12.80;99.90
20915;DHT22;10617;52.032;5.298;2022-09-17T07:06:58;12.80;99.90
20915;DHT22;10617;52.032;5.298;2022-09-17T07:10:59;12.90;99.90
20915;DHT22;10617;52.032;5.298;2022-09-17T07:15:01;13.00;99.90
20915;DHT22;10617;52.032;5.298;2022-09-17T07:19:03;13.00;99.90
20915;DHT22;10617;52.032;5.298;2022-09-17T07:23:05;13.10;99.90
20915;DHT22;10617;52.032;5.298;2022-09-17T07:27:06;13.00;99.90
20915;DHT22;10617;52.032;5.298;2022-09-17T07:31:08;13.00;99.90
20915;DHT22;10617;52.032;5.298;2022-09-17T07:35:15;13.00;99.90
20915;DHT22;10617;52.032;5.298;2022-09-17T07:39:18;13.00;99.90
20915;DHT22;10617;52.032;5.298;2022-09-17T07:43:19;13.10;99.90
20915;DHT22;10617;52.032;5.298;2022-09-17T07:47:21;13.10;99.90
20915;DHT22;10617;52.032;5.298;2022-09-17T07:51:24;13.20;99.90
20915;DHT22;10617;52.032;5.298;2022-09-17T07:55:25;13.30;99.90
20915;DHT22;10617;52.032;5.298;2022-09-17T07:59:27;13.30;99.90
20915;DHT22;10617;52.032;5.298;2022-09-17T08:03:29;13.40;99.90
20915;DHT22;10617;52.032;5.298;2022-09-17T08:07:30;13.50;99.90
20915;DHT22;10617;52.032;5.298;2022-09-17T08:11:32;13.70;99.90
20915;DHT22;10617;52.032;5.298;2022-09-17T08:15:56;13.80;99.90
20915;DHT22;10617;52.032;5.298;2022-09-17T08:19:58;13.90;99.90
20915;DHT22;10617;52.032;5.298;2022-09-17T08:24:00;14.00;99.90
20915;DHT22;10617;52.032;5.298;2022-09-17T08:28:01;14.10;99.90
20915;DHT22;10617;52.032;5.298;2022-09-17T08:32:03;14.20;99.90
20915;DHT22;10617;52.032;5.298;2022-09-17T08:36:05;14.20;99.90
20915;DHT22;10617;52.032;5.298;2022-09-17T08:40:11;14.30;99.90
20915;DHT22;10617;52.032;5.298;2022-09-17T08:48:15;14.30;99.90
20915;DHT22;10617;52.032;5.298;2022-09-17T08:56:29;14.10;99.90
20915;DHT22;10617;52.032;5.298;2022-09-17T09:00:38;13.90;99.90
20915;DHT22;10617;52.032;5.298;2022-09-17T09:04:49;13.60;99.90
20915;DHT22;10617;52.032;5.298;2022-09-17T09:08:55;13.40;99.90
20915;DHT22;10617;52.032;5.298;2022-09-17T09:13:00;13.20;99.90
20915;DHT22;10617;52.032;5.298;2022-09-17T09:17:04;13.10;99.90
20915;DHT22;10617;52.032;5.298;2022-09-17T09:25:25;13.30;99.90
20915;DHT22;10617;52.032;5.298;2022-09-17T09:33:50;13.40;99.90
20915;DHT22;10617;52.032;5.298;2022-09-17T09:50:43;13.90;99.90
20915;DHT22;10617;52.032;5.298;2022-09-17T09:59:11;14.20;99.90
20915;DHT22;10617;52.032;5.298;2022-09-17T10:03:20;14.30;99.90
20915;DHT22;10617;52.032;5.298;2022-09-17T10:07:21;14.40;99.90
20915;DHT22;10617;52.032;5.298;2022-09-17T10:11:24;14.40;99.90
20915;DHT22;10617;52.032;5.298;2022-09-17T10:15:27;14.40;99.90
20915;DHT22;10617;52.032;5.298;2022-09-17T10:19:29;14.40;99.90
20915;DHT22;10617;52.032;5.298;2022-09-17T10:23:32;14.50;99.90
20915;DHT22;10617;52.032;5.298;2022-09-17T10:27:36;14.70;99.90
20915;DHT22;10617;52.032;5.298;2022-09-17T10:31:53;14.90;99.90
20915;DHT22;10617;52.032;5.298;2022-09-17T10:36:17;15.00;99.90
20915;DHT22;10617;52.032;5.298;2022-09-17T10:44:21;15.40;99.90
20915;DHT22;10617;52.032;5.298;2022-09-17T10:48:26;15.60;99.90
20915;DHT22;10617;52.032;5.298;2022-09-17T10:52:33;15.70;99.90
20915;DHT22;10617;52.032;5.298;2022-09-17T10:56:36;15.80;99.90
20915;DHT22;10617;52.032;5.298;2022-09-17T11:05:32;15.60;99.90
20915;DHT22;10617;52.032;5.298;2022-09-17T11:09:29;15.50;99.90
20915;DHT22;10617;52.032;5.298;2022-09-17T11:14:15;15.50;99.90
20915;DHT22;10617;52.032;5.298;2022-09-17T11:18:34;15.60;99.90
20915;DHT22;10617;52.032;5.298;2022-09-17T11:27:11;15.80;99.90
20915;DHT22;10617;52.032;5.298;2022-09-17T11:35:58;16.10;99.90
20915;DHT22;10617;52.032;5.298;2022-09-17T11:40:11;16.00;99.90
20915;DHT22;10617;52.032;5.298;2022-09-17T11:44:26;15.90;99.90
20915;DHT22;10617;52.032;5.298;2022-09-17T11:48:35;15.90;99.90
20915;DHT22;10617;52.032;5.298;2022-09-17T11:52:43;16.00;99.90
20915;DHT22;10617;52.032;5.298;2022-09-17T11:56:51;15.90;99.90
20915;DHT22;10617;52.032;5.298;2022-09-17T12:01:02;15.80;99.90
20915;DHT22;10617;52.032;5.298;2022-09-17T12:09:27;15.80;99.90
20915;DHT22;10617;52.032;5.298;2022-09-17T12:13:43;15.90;99.90
20915;DHT22;10617;52.032;5.298;2022-09-17T12:22:26;16.00;99.90
20915;DHT22;10617;52.032;5.298;2022-09-17T12:26:41;16.00;99.90
20915;DHT22;10617;52.032;5.298;2022-09-17T12:30:53;15.90;99.90
20915;DHT22;10617;52.032;5.298;2022-09-17T12:35:27;15.80;99.90
20915;DHT22;10617;52.032;5.298;2022-09-17T12:44:41;15.60;99.90
20915;DHT22;10617;52.032;5.298;2022-09-17T12:53:21;15.90;99.90
20915;DHT22;10617;52.032;5.298;2022-09-17T12:57:49;16.00;99.90
20915;DHT22;10617;52.032;5.298;2022-09-17T13:01:59;16.10;99.90
20915;DHT22;10617;52.032;5.298;2022-09-17T13:23:48;16.40;99.90
20915;DHT22;10617;52.032;5.298;2022-09-17T13:28:02;16.50;99.90
20915;DHT22;10617;52.032;5.298;2022-09-17T13:32:04;16.60;99.90
20915;DHT22;10617;52.032;5.298;2022-09-17T13:36:29;16.70;99.90
20915;DHT22;10617;52.032;5.298;2022-09-17T13:44:36;16.90;99.90
20915;DHT22;10617;52.032;5.298;2022-09-17T13:48:44;17.10;99.90
20915;DHT22;10617;52.032;5.298;2022-09-17T13:52:48;17.20;99.90
20915;DHT22;10617;52.032;5.298;2022-09-17T13:57:01;17.30;99.90
20915;DHT22;10617;52.032;5.298;2022-09-17T14:01:10;17.40;99.90
20915;DHT22;10617;52.032;5.298;2022-09-17T14:05:20;17.30;99.90
20915;DHT22;10617;52.032;5.298;2022-09-17T14:09:34;17.10;99.90
20915;DHT22;10617;52.032;5.298;2022-09-17T14:13:45;16.90;99.90
20915;DHT22;10617;52.032;5.298;2022-09-17T14:17:48;16.90;99.90
20915;DHT22;10617;52.032;5.298;2022-09-17T14:26:00;17.00;99.90
20915;DHT22;10617;52.032;5.298;2022-09-17T14:34:04;17.20;99.90
20915;DHT22;10617;52.032;5.298;2022-09-17T14:43:18;17.30;99.90
20915;DHT22;10617;52.032;5.298;2022-09-17T14:47:20;17.30;99.90
20915;DHT22;10617;52.032;5.298;2022-09-17T14:51:24;17.10;99.90
20915;DHT22;10617;52.032;5.298;2022-09-17T14:55:26;16.90;99.90
20915;DHT22;10617;52.032;5.298;2022-09-17T15:00:04;16.70;99.90
20915;DHT22;10617;52.032;5.298;2022-09-17T15:08:13;16.70;99.90
20915;DHT22;10617;52.032;5.298;2022-09-17T15:12:16;16.70;99.90
20915;DHT22;10617;52.032;5.298;2022-09-17T15:16:22;16.80;99.90
20915;DHT22;10617;52.032;5.298;2022-09-17T15:20:28;16.80;99.90
20915;DHT22;10617;52.032;5.298;2022-09-17T15:24:34;16.90;99.90
20915;DHT22;10617;52.032;5.298;2022-09-17T15:28:39;17.00;99.90
20915;DHT22;10617;52.032;5.298;2022-09-17T15:32:42;17.10;99.90
20915;DHT22;10617;52.032;5.298;2022-09-17T15:41:21;16.90;99.90
20915;DHT22;10617;52.032;5.298;2022-09-17T15:45:26;16.90;99.90
20915;DHT22;10617;52.032;5.298;2022-09-17T15:49:32;16.90;99.90
20915;DHT22;10617;52.032;5.298;2022-09-17T15:53:38;16.80;99.90
20915;DHT22;10617;52.032;5.298;2022-09-17T15:57:42;16.70;99.90
20915;DHT22;10617;52.032;5.298;2022-09-17T16:05:48;16.70;99.90
20915;DHT22;10617;52.032;5.298;2022-09-17T16:09:55;16.70;99.90
20915;DHT22;10617;52.032;5.298;2022-09-17T16:14:00;16.70;99.90
20915;DHT22;10617;52.032;5.298;2022-09-17T16:18:02;16.60;99.90
20915;DHT22;10617;52.032;5.298;2022-09-17T16:22:03;16.60;99.90
20915;DHT22;10617;52.032;5.298;2022-09-17T16:26:05;16.60;99.90
20915;DHT22;10617;52.032;5.298;2022-09-17T16:30:17;16.50;99.90
20915;DHT22;10617;52.032;5.298;2022-09-17T16:34:19;16.40;99.90
20915;DHT22;10617;52.032;5.298;2022-09-17T16:38:21;16.20;99.90
20915;DHT22;10617;52.032;5.298;2022-09-17T16:42:22;16.00;99.90
20915;DHT22;10617;52.032;5.298;2022-09-17T16:46:24;15.90;99.90
20915;DHT22;10617;52.032;5.298;2022-09-17T16:50:26;15.80;99.90
20915;DHT22;10617;52.032;5.298;2022-09-17T16:54:28;15.60;99.90
20915;DHT22;10617;52.032;5.298;2022-09-17T16:58:30;15.40;99.90
20915;DHT22;10617;52.032;5.298;2022-09-17T17:02:31;15.00;99.90
20915;DHT22;10617;52.032;5.298;2022-09-17T17:06:33;14.70;99.90
20915;DHT22;10617;52.032;5.298;2022-09-17T17:10:36;14.40;99.90
20915;DHT22;10617;52.032;5.298;2022-09-17T17:14:38;14.20;99.90
20915;DHT22;10617;52.032;5.298;2022-09-17T17:18:43;14.00;99.90
20915;DHT22;10617;52.032;5.298;2022-09-17T17:22:44;13.90;99.90
20915;DHT22;10617;52.032;5.298;2022-09-17T17:26:46;13.80;99.90
20915;DHT22;10617;52.032;5.298;2022-09-17T17:30:48;13.70;99.90
20915;DHT22;10617;52.032;5.298;2022-09-17T17:34:50;13.70;99.90
20915;DHT22;10617;52.032;5.298;2022-09-17T17:38:58;13.70;99.90
20915;DHT22;10617;52.032;5.298;2022-09-17T17:43:00;13.70;99.90
20915;DHT22;10617;52.032;5.298;2022-09-17T17:47:02;13.70;99.90
20915;DHT22;10617;52.032;5.298;2022-09-17T17:51:04;13.80;99.90
20915;DHT22;10617;52.032;5.298;2022-09-17T17:55:06;13.80;99.90
20915;DHT22;10617;52.032;5.298;2022-09-17T17:59:08;13.80;99.90
20915;DHT22;10617;52.032;5.298;2022-09-17T18:03:10;13.80;99.90
20915;DHT22;10617;52.032;5.298;2022-09-17T18:07:11;13.80;99.90
20915;DHT22;10617;52.032;5.298;2022-09-17T18:11:13;13.80;99.90
20915;DHT22;10617;52.032;5.298;2022-09-17T18:15:15;13.80;99.90
20915;DHT22;10617;52.032;5.298;2022-09-17T18:19:17;13.80;99.90
20915;DHT22;10617;52.032;5.298;2022-09-17T18:23:19;13.80;99.90
20915;DHT22;10617;52.032;5.298;2022-09-17T18:27:21;13.70;99.90
20915;DHT22;10617;52.032;5.298;2022-09-17T18:35:24;13.60;99.90
20915;DHT22;10617;52.032;5.298;2022-09-17T18:39:27;13.60;99.90
20915;DHT22;10617;52.032;5.298;2022-09-17T18:43:48;13.60;99.90
20915;DHT22;10617;52.032;5.298;2022-09-17T18:47:50;13.60;99.90
20915;DHT22;10617;52.032;5.298;2022-09-17T19:07:09;13.40;99.90
20915;DHT22;10617;52.032;5.298;2022-09-17T19:11:11;13.30;99.90
20915;DHT22;10617;52.032;5.298;2022-09-17T19:15:13;13.40;99.90
20915;DHT22;10617;52.032;5.298;2022-09-17T19:19:15;13.40;99.90
20915;DHT22;10617;52.032;5.298;2022-09-17T19:23:16;13.30;99.90
20915;DHT22;10617;52.032;5.298;2022-09-17T19:27:18;13.30;99.90
20915;DHT22;10617;52.032;5.298;2022-09-17T19:31:19;13.30;99.90
20915;DHT22;10617;52.032;5.298;2022-09-17T19:35:21;13.30;99.90
20915;DHT22;10617;52.032;5.298;2022-09-17T19:39:23;13.30;99.90
20915;DHT22;10617;52.032;5.298;2022-09-17T19:43:25;13.30;99.90
20915;DHT22;10617;52.032;5.298;2022-09-17T19:47:27;13.30;99.90
20915;DHT22;10617;52.032;5.298;2022-09-17T19:51:28;13.20;99.90
20915;DHT22;10617;52.032;5.298;2022-09-17T19:55:30;13.20;99.90
20915;DHT22;10617;52.032;5.298;2022-09-17T19:59:32;13.20;99.90
20915;DHT22;10617;52.032;5.298;2022-09-17T20:03:33;13.30;99.90
20915;DHT22;10617;52.032;5.298;2022-09-17T20:07:35;13.30;99.90
20915;DHT22;10617;52.032;5.298;2022-09-17T20:11:37;13.30;99.90
20915;DHT22;10617;52.032;5.298;2022-09-17T20:15:40;13.20;99.90
20915;DHT22;10617;52.032;5.298;2022-09-17T20:19:44;13.20;99.90
20915;DHT22;10617;52.032;5.298;2022-09-17T20:23:45;13.20;99.90
20915;DHT22;10617;52.032;5.298;2022-09-17T20:27:47;13.10;99.90
20915;DHT22;10617;52.032;5.298;2022-09-17T20:31:49;13.10;99.90
20915;DHT22;10617;52.032;5.298;2022-09-17T20:35:56;13.10;99.90
20915;DHT22;10617;52.032;5.298;2022-09-17T20:39:57;13.20;99.90
20915;DHT22;10617;52.032;5.298;2022-09-17T20:43:59;13.20;99.90
20915;DHT22;10617;52.032;5.298;2022-09-17T20:48:00;13.20;99.90
20915;DHT22;10617;52.032;5.298;2022-09-17T20:52:02;13.20;99.90
20915;DHT22;10617;52.032;5.298;2022-09-17T20:56:11;13.20;99.90
20915;DHT22;10617;52.032;5.298;2022-09-17T21:00:13;13.20;99.90
20915;DHT22;10617;52.032;5.298;2022-09-17T21:04:21;13.20;99.90
20915;DHT22;10617;52.032;5.298;2022-09-17T21:08:25;13.20;99.90
20915;DHT22;10617;52.032;5.298;2022-09-17T21:12:26;13.10;99.90
20915;DHT22;10617;52.032;5.298;2022-09-17T21:16:28;13.10;99.90
20915;DHT22;10617;52.032;5.298;2022-09-17T21:20:34;13.10;99.90
20915;DHT22;10617;52.032;5.298;2022-09-17T21:24:35;13.10;99.90
20915;DHT22;10617;52.032;5.298;2022-09-17T21:28:37;13.10;99.90
20915;DHT22;10617;52.032;5.298;2022-09-17T21:32:39;13.10;99.90
20915;DHT22;10617;52.032;5.298;2022-09-17T21:36:41;13.10;99.90
20915;DHT22;10617;52.032;5.298;2022-09-17T21:40:54;13.10;99.90
20915;DHT22;10617;52.032;5.298;2022-09-17T21:44:56;13.10;99.90
20915;DHT22;10617;52.032;5.298;2022-09-17T21:48:58;13.10;99.90
20915;DHT22;10617;52.032;5.298;2022-09-17T21:53:00;13.10;99.90
20915;DHT22;10617;52.032;5.298;2022-09-17T21:57:02;13.10;99.90
20915;DHT22;10617;52.032;5.298;2022-09-17T22:01:08;13.10;99.90
20915;DHT22;10617;52.032;5.298;2022-09-17T22:05:10;13.00;99.90
20915;DHT22;10617;52.032;5.298;2022-09-17T22:09:13;13.00;99.90
20915;DHT22;10617;52.032;5.298;2022-09-17T22:13:14;13.00;99.90
20915;DHT22;10617;52.032;5.298;2022-09-17T22:17:16;13.00;99.90
20915;DHT22;10617;52.032;5.298;2022-09-17T22:21:19;13.00;99.90
20915;DHT22;10617;52.032;5.298;2022-09-17T22:25:21;13.00;99.90
20915;DHT22;10617;52.032;5.298;2022-09-17T22:29:23;13.00;99.90
20915;DHT22;10617;52.032;5.298;2022-09-17T22:33:25;13.00;99.90
20915;DHT22;10617;52.032;5.298;2022-09-17T22:37:27;13.00;99.90
20915;DHT22;10617;52.032;5.298;2022-09-17T22:41:29;13.00;99.90
20915;DHT22;10617;52.032;5.298;2022-09-17T22:45:31;13.00;99.90
20915;DHT22;10617;52.032;5.298;2022-09-17T22:49:33;13.00;99.90
20915;DHT22;10617;52.032;5.298;2022-09-17T22:53:35;13.00;99.90
20915;DHT22;10617;52.032;5.298;2022-09-17T22:57:37;13.00;99.90
20915;DHT22;10617;52.032;5.298;2022-09-17T23:01:39;13.00;99.90
20915;DHT22;10617;52.032;5.298;2022-09-17T23:05:40;12.90;99.90
20915;DHT22;10617;52.032;5.298;2022-09-17T23:09:42;12.90;99.90
20915;DHT22;10617;52.032;5.298;2022-09-17T23:13:44;12.90;99.90
20915;DHT22;10617;52.032;5.298;2022-09-17T23:17:45;12.90;99.90
20915;DHT22;10617;52.032;5.298;2022-09-17T23:21:47;12.80;99.90
20915;DHT22;10617;52.032;5.298;2022-09-17T23:25:49;12.70;99.90
20915;DHT22;10617;52.032;5.298;2022-09-17T23:29:50;12.70;99.90
20915;DHT22;10617;52.032;5.298;2022-09-17T23:33:52;12.60;99.90
20915;DHT22;10617;52.032;5.298;2022-09-17T23:37:54;12.60;99.90
20915;DHT22;10617;52.032;5.298;2022-09-17T23:41:55;12.70;99.90
20915;DHT22;10617;52.032;5.298;2022-09-17T23:45:57;12.70;99.90
20915;DHT22;10617;52.032;5.298;2022-09-17T23:49:59;12.70;99.90
20915;DHT22;10617;52.032;5.298;2022-09-17T23:54:00;12.70;99.90
20915;DHT22;10617;52.032;5.298;2022-09-17T23:58:02;12.70;99.90
